sensor_id;sensor_type;location;lat;lon;timestamp;temperature;humidity
22738;DHT22;11536;50.860;4.286;2023-05-10T00:00:53;14.20;99.90
22738;DHT22;11536;50.860;4.286;2023-05-10T00:03:19;14.20;99.90
22738;DHT22;11536;50.860;4.286;2023-05-10T00:05:44;14.20;99.90
22738;DHT22;11536;50.860;4.286;2023-05-10T00:08:10;14.20;99.90
22738;DHT22;11536;50.860;4.286;2023-05-10T00:10:35;14.10;99.90
22738;DHT22;11536;50.860;4.286;2023-05-10T00:13:02;14.20;99.90
22738;DHT22;11536;50.860;4.286;2023-05-10T00:15:28;14.20;99.90
22738;DHT22;11536;50.860;4.286;2023-05-10T00:17:56;14.10;99.90
22738;DHT22;11536;50.860;4.286;2023-05-10T00:20:21;14.20;99.90
22738;DHT22;11536;50.860;4.286;2023-05-10T00:22:47;14.20;99.90
22738;DHT22;11536;50.860;4.286;2023-05-10T00:25:12;14.20;99.90
22738;DHT22;11536;50.860;4.286;2023-05-10T00:27:38;14.20;99.90
22738;DHT22;11536;50.860;4.286;2023-05-10T00:30:04;14.20;99.90
22738;DHT22;11536;50.860;4.286;2023-05-10T00:32:30;14.20;99.90
22738;DHT22;11536;50.860;4.286;2023-05-10T00:34:56;14.20;99.90
22738;DHT22;11536;50.860;4.286;2023-05-10T00:37:21;14.20;99.90
22738;DHT22;11536;50.860;4.286;2023-05-10T00:39:47;14.10;99.90
22738;DHT22;11536;50.860;4.286;2023-05-10T00:42:12;14.10;99.90
22738;DHT22;11536;50.860;4.286;2023-05-10T00:44:38;14.10;99.90
22738;DHT22;11536;50.860;4.286;2023-05-10T00:47:04;14.10;99.90
22738;DHT22;11536;50.860;4.286;2023-05-10T00:49:29;14.10;99.90
22738;DHT22;11536;50.860;4.286;2023-05-10T00:51:55;14.10;99.90
22738;DHT22;11536;50.860;4.286;2023-05-10T00:54:21;14.10;99.90
22738;DHT22;11536;50.860;4.286;2023-05-10T00:56:47;14.10;99.90
22738;DHT22;11536;50.860;4.286;2023-05-10T00:59:15;14.10;99.90
22738;DHT22;11536;50.860;4.286;2023-05-10T01:01:42;14.10;99.90
22738;DHT22;11536;50.860;4.286;2023-05-10T01:04:09;14.10;99.90
22738;DHT22;11536;50.860;4.286;2023-05-10T01:06:36;14.10;99.90
22738;DHT22;11536;50.860;4.286;2023-05-10T01:09:02;14.10;99.90
22738;DHT22;11536;50.860;4.286;2023-05-10T01:11:28;14.10;99.90
22738;DHT22;11536;50.860;4.286;2023-05-10T01:13:56;14.10;99.90
22738;DHT22;11536;50.860;4.286;2023-05-10T01:16:23;14.10;99.90
22738;DHT22;11536;50.860;4.286;2023-05-10T01:18:49;14.10;99.90
22738;DHT22;11536;50.860;4.286;2023-05-10T01:21:43;14.10;99.90
22738;DHT22;11536;50.860;4.286;2023-05-10T01:35:00;14.00;99.90
22738;DHT22;11536;50.860;4.286;2023-05-10T01:37:33;14.10;99.90
22738;DHT22;11536;50.860;4.286;2023-05-10T01:40:09;14.10;99.90
22738;DHT22;11536;50.860;4.286;2023-05-10T01:42:46;14.00;99.90
22738;DHT22;11536;50.860;4.286;2023-05-10T01:48:11;14.00;99.90
22738;DHT22;11536;50.860;4.286;2023-05-10T01:50:39;14.00;99.90
22738;DHT22;11536;50.860;4.286;2023-05-10T01:53:10;14.00;99.90
22738;DHT22;11536;50.860;4.286;2023-05-10T01:55:55;14.00;99.90
22738;DHT22;11536;50.860;4.286;2023-05-10T01:58:29;14.10;99.90
22738;DHT22;11536;50.860;4.286;2023-05-10T02:00:55;14.00;99.90
22738;DHT22;11536;50.860;4.286;2023-05-10T02:03:24;14.10;99.90
22738;DHT22;11536;50.860;4.286;2023-05-10T02:05:52;14.10;99.90
22738;DHT22;11536;50.860;4.286;2023-05-10T02:08:19;14.10;99.90
22738;DHT22;11536;50.860;4.286;2023-05-10T02:10:46;14.10;99.90
22738;DHT22;11536;50.860;4.286;2023-05-10T02:13:14;14.10;99.90
22738;DHT22;11536;50.860;4.286;2023-05-10T02:15:41;14.10;99.90
22738;DHT22;11536;50.860;4.286;2023-05-10T02:18:09;14.10;99.90
22738;DHT22;11536;50.860;4.286;2023-05-10T02:20:37;14.10;99.90
22738;DHT22;11536;50.860;4.286;2023-05-10T02:23:03;14.10;99.90
22738;DHT22;11536;50.860;4.286;2023-05-10T02:25:31;14.10;99.90
22738;DHT22;11536;50.860;4.286;2023-05-10T02:28:00;14.10;99.90
22738;DHT22;11536;50.860;4.286;2023-05-10T02:30:27;14.10;99.90
22738;DHT22;11536;50.860;4.286;2023-05-10T02:32:54;14.10;99.90
22738;DHT22;11536;50.860;4.286;2023-05-10T02:35:22;14.10;99.90
22738;DHT22;11536;50.860;4.286;2023-05-10T02:37:48;14.10;99.90
22738;DHT22;11536;50.860;4.286;2023-05-10T02:40:16;14.10;99.90
22738;DHT22;11536;50.860;4.286;2023-05-10T02:42:44;14.10;99.90
22738;DHT22;11536;50.860;4.286;2023-05-10T02:45:13;14.10;99.90
22738;DHT22;11536;50.860;4.286;2023-05-10T02:47:40;14.10;99.90
22738;DHT22;11536;50.860;4.286;2023-05-10T02:50:07;14.10;99.90
22738;DHT22;11536;50.860;4.286;2023-05-10T02:52:51;14.10;99.90
22738;DHT22;11536;50.860;4.286;2023-05-10T02:55:22;14.10;99.90
22738;DHT22;11536;50.860;4.286;2023-05-10T02:58:01;14.10;99.90
22738;DHT22;11536;50.860;4.286;2023-05-10T03:00:27;14.10;99.90
22738;DHT22;11536;50.860;4.286;2023-05-10T03:02:53;14.10;99.90
22738;DHT22;11536;50.860;4.286;2023-05-10T03:05:20;14.10;99.90
22738;DHT22;11536;50.860;4.286;2023-05-10T03:07:46;14.10;99.90
22738;DHT22;11536;50.860;4.286;2023-05-10T03:10:12;14.10;99.90
22738;DHT22;11536;50.860;4.286;2023-05-10T03:12:46;14.20;99.90
22738;DHT22;11536;50.860;4.286;2023-05-10T03:18:22;14.10;99.90
22738;DHT22;11536;50.860;4.286;2023-05-10T03:20:51;14.10;99.90
22738;DHT22;11536;50.860;4.286;2023-05-10T03:23:27;14.10;99.90
22738;DHT22;11536;50.860;4.286;2023-05-10T03:25:55;14.10;99.90
22738;DHT22;11536;50.860;4.286;2023-05-10T03:28:21;14.10;99.90
22738;DHT22;11536;50.860;4.286;2023-05-10T03:30:52;14.10;99.90
22738;DHT22;11536;50.860;4.286;2023-05-10T03:33:18;14.00;99.90
22738;DHT22;11536;50.860;4.286;2023-05-10T03:35:44;14.10;99.90
22738;DHT22;11536;50.860;4.286;2023-05-10T03:38:11;14.00;99.90
22738;DHT22;11536;50.860;4.286;2023-05-10T03:40:37;14.00;99.90
22738;DHT22;11536;50.860;4.286;2023-05-10T03:43:04;14.00;99.90
22738;DHT22;11536;50.860;4.286;2023-05-10T03:45:29;14.00;99.90
22738;DHT22;11536;50.860;4.286;2023-05-10T03:47:57;14.00;99.90
22738;DHT22;11536;50.860;4.286;2023-05-10T03:50:22;14.00;99.90
22738;DHT22;11536;50.860;4.286;2023-05-10T03:52:48;14.00;99.90
22738;DHT22;11536;50.860;4.286;2023-05-10T03:55:14;14.10;99.90
22738;DHT22;11536;50.860;4.286;2023-05-10T03:57:42;14.10;99.90
22738;DHT22;11536;50.860;4.286;2023-05-10T04:00:09;14.10;99.90
22738;DHT22;11536;50.860;4.286;2023-05-10T04:02:35;14.10;99.90
22738;DHT22;11536;50.860;4.286;2023-05-10T04:05:01;14.10;99.90
22738;DHT22;11536;50.860;4.286;2023-05-10T04:07:26;14.10;99.90
22738;DHT22;11536;50.860;4.286;2023-05-10T04:09:52;14.10;99.90
22738;DHT22;11536;50.860;4.286;2023-05-10T04:12:18;14.10;99.90
22738;DHT22;11536;50.860;4.286;2023-05-10T04:14:43;14.10;99.90
22738;DHT22;11536;50.860;4.286;2023-05-10T04:17:09;14.10;99.90
22738;DHT22;11536;50.860;4.286;2023-05-10T04:19:35;14.10;99.90
22738;DHT22;11536;50.860;4.286;2023-05-10T04:22:02;14.10;99.90
22738;DHT22;11536;50.860;4.286;2023-05-10T04:24:28;14.10;99.90
22738;DHT22;11536;50.860;4.286;2023-05-10T04:26:54;14.10;99.90
22738;DHT22;11536;50.860;4.286;2023-05-10T04:29:20;14.10;99.90
22738;DHT22;11536;50.860;4.286;2023-05-10T04:31:46;14.10;99.90
22738;DHT22;11536;50.860;4.286;2023-05-10T04:34:11;14.10;99.90
22738;DHT22;11536;50.860;4.286;2023-05-10T04:36:37;14.10;99.90
22738;DHT22;11536;50.860;4.286;2023-05-10T04:39:03;14.10;99.90
22738;DHT22;11536;50.860;4.286;2023-05-10T04:41:29;14.20;99.90
22738;DHT22;11536;50.860;4.286;2023-05-10T04:43:55;14.10;99.90
22738;DHT22;11536;50.860;4.286;2023-05-10T04:46:20;14.10;99.90
22738;DHT22;11536;50.860;4.286;2023-05-10T04:48:46;14.10;99.90
22738;DHT22;11536;50.860;4.286;2023-05-10T04:51:12;14.10;99.90
22738;DHT22;11536;50.860;4.286;2023-05-10T04:53:38;14.20;99.90
22738;DHT22;11536;50.860;4.286;2023-05-10T04:56:03;14.10;99.90
22738;DHT22;11536;50.860;4.286;2023-05-10T04:58:29;14.10;99.90
22738;DHT22;11536;50.860;4.286;2023-05-10T05:00:55;14.10;99.90
22738;DHT22;11536;50.860;4.286;2023-05-10T05:03:20;14.10;99.90
22738;DHT22;11536;50.860;4.286;2023-05-10T05:05:47;14.10;99.90
22738;DHT22;11536;50.860;4.286;2023-05-10T05:08:14;14.20;99.90
22738;DHT22;11536;50.860;4.286;2023-05-10T05:10:40;14.10;99.90
22738;DHT22;11536;50.860;4.286;2023-05-10T05:13:05;14.20;99.90
22738;DHT22;11536;50.860;4.286;2023-05-10T05:15:31;14.10;99.90
22738;DHT22;11536;50.860;4.286;2023-05-10T05:17:57;14.10;99.90
22738;DHT22;11536;50.860;4.286;2023-05-10T05:20:22;14.10;99.90
22738;DHT22;11536;50.860;4.286;2023-05-10T05:22:48;14.10;99.90
22738;DHT22;11536;50.860;4.286;2023-05-10T05:25:14;14.10;99.90
22738;DHT22;11536;50.860;4.286;2023-05-10T05:27:42;14.10;99.90
22738;DHT22;11536;50.860;4.286;2023-05-10T05:30:08;14.10;99.90
22738;DHT22;11536;50.860;4.286;2023-05-10T05:32:34;14.00;99.90
22738;DHT22;11536;50.860;4.286;2023-05-10T05:35:00;14.00;99.90
22738;DHT22;11536;50.860;4.286;2023-05-10T05:37:26;14.00;99.90
22738;DHT22;11536;50.860;4.286;2023-05-10T05:39:52;13.90;99.90
22738;DHT22;11536;50.860;4.286;2023-05-10T05:42:18;13.90;99.90
22738;DHT22;11536;50.860;4.286;2023-05-10T05:44:44;13.90;99.90
22738;DHT22;11536;50.860;4.286;2023-05-10T05:47:10;13.90;99.90
22738;DHT22;11536;50.860;4.286;2023-05-10T05:49:36;13.90;99.90
22738;DHT22;11536;50.860;4.286;2023-05-10T05:52:03;13.90;99.90
22738;DHT22;11536;50.860;4.286;2023-05-10T05:54:29;13.90;99.90
22738;DHT22;11536;50.860;4.286;2023-05-10T05:56:59;13.90;99.90
22738;DHT22;11536;50.860;4.286;2023-05-10T05:59:25;14.00;99.90
22738;DHT22;11536;50.860;4.286;2023-05-10T06:01:51;13.90;99.90
22738;DHT22;11536;50.860;4.286;2023-05-10T06:04:17;13.90;99.90
22738;DHT22;11536;50.860;4.286;2023-05-10T06:06:43;13.90;99.90
22738;DHT22;11536;50.860;4.286;2023-05-10T06:09:09;13.90;99.90
22738;DHT22;11536;50.860;4.286;2023-05-10T06:11:35;13.90;99.90
22738;DHT22;11536;50.860;4.286;2023-05-10T06:14:01;13.90;99.90
22738;DHT22;11536;50.860;4.286;2023-05-10T06:16:27;13.90;99.90
22738;DHT22;11536;50.860;4.286;2023-05-10T06:18:53;13.90;99.90
22738;DHT22;11536;50.860;4.286;2023-05-10T06:21:19;13.90;99.90
22738;DHT22;11536;50.860;4.286;2023-05-10T06:23:45;13.90;99.90
22738;DHT22;11536;50.860;4.286;2023-05-10T06:26:10;13.90;99.90
22738;DHT22;11536;50.860;4.286;2023-05-10T06:28:36;13.90;99.90
22738;DHT22;11536;50.860;4.286;2023-05-10T06:31:04;13.90;99.90
22738;DHT22;11536;50.860;4.286;2023-05-10T06:33:30;13.90;99.90
22738;DHT22;11536;50.860;4.286;2023-05-10T06:35:56;13.90;99.90
22738;DHT22;11536;50.860;4.286;2023-05-10T06:38:22;13.90;99.90
22738;DHT22;11536;50.860;4.286;2023-05-10T06:40:48;13.90;99.90
22738;DHT22;11536;50.860;4.286;2023-05-10T06:43:14;13.90;99.90
22738;DHT22;11536;50.860;4.286;2023-05-10T06:45:40;13.90;99.90
22738;DHT22;11536;50.860;4.286;2023-05-10T06:48:06;13.90;99.90
22738;DHT22;11536;50.860;4.286;2023-05-10T06:50:32;13.90;99.90
22738;DHT22;11536;50.860;4.286;2023-05-10T06:52:58;13.90;99.90
22738;DHT22;11536;50.860;4.286;2023-05-10T06:55:24;13.80;99.90
22738;DHT22;11536;50.860;4.286;2023-05-10T06:57:50;13.80;99.90
22738;DHT22;11536;50.860;4.286;2023-05-10T07:00:16;13.80;99.90
22738;DHT22;11536;50.860;4.286;2023-05-10T07:02:42;13.80;99.90
22738;DHT22;11536;50.860;4.286;2023-05-10T07:05:09;13.80;99.90
22738;DHT22;11536;50.860;4.286;2023-05-10T07:07:34;13.80;99.90
22738;DHT22;11536;50.860;4.286;2023-05-10T07:10:00;13.80;99.90
22738;DHT22;11536;50.860;4.286;2023-05-10T07:12:26;13.70;99.90
22738;DHT22;11536;50.860;4.286;2023-05-10T07:14:51;13.70;99.90
22738;DHT22;11536;50.860;4.286;2023-05-10T07:17:17;13.80;99.90
22738;DHT22;11536;50.860;4.286;2023-05-10T07:19:43;13.80;99.90
22738;DHT22;11536;50.860;4.286;2023-05-10T07:22:09;13.80;99.90
22738;DHT22;11536;50.860;4.286;2023-05-10T07:24:35;13.80;99.90
22738;DHT22;11536;50.860;4.286;2023-05-10T07:27:01;13.80;99.90
22738;DHT22;11536;50.860;4.286;2023-05-10T07:29:26;13.80;99.90
22738;DHT22;11536;50.860;4.286;2023-05-10T07:31:52;13.80;99.90
22738;DHT22;11536;50.860;4.286;2023-05-10T07:34:18;13.80;99.90
22738;DHT22;11536;50.860;4.286;2023-05-10T07:36:43;13.80;99.90
22738;DHT22;11536;50.860;4.286;2023-05-10T07:39:09;13.80;99.90
22738;DHT22;11536;50.860;4.286;2023-05-10T07:41:34;13.80;99.90
22738;DHT22;11536;50.860;4.286;2023-05-10T07:44:00;13.80;99.90
22738;DHT22;11536;50.860;4.286;2023-05-10T07:46:26;13.80;99.90
22738;DHT22;11536;50.860;4.286;2023-05-10T07:48:52;13.80;99.90
22738;DHT22;11536;50.860;4.286;2023-05-10T07:51:17;13.80;99.90
22738;DHT22;11536;50.860;4.286;2023-05-10T07:53:43;13.70;99.90
22738;DHT22;11536;50.860;4.286;2023-05-10T07:56:24;13.70;99.90
22738;DHT22;11536;50.860;4.286;2023-05-10T07:58:51;13.70;99.90
22738;DHT22;11536;50.860;4.286;2023-05-10T08:01:17;13.70;99.90
22738;DHT22;11536;50.860;4.286;2023-05-10T08:03:43;13.70;99.90
22738;DHT22;11536;50.860;4.286;2023-05-10T08:06:09;13.70;99.90
22738;DHT22;11536;50.860;4.286;2023-05-10T08:08:34;13.70;99.90
22738;DHT22;11536;50.860;4.286;2023-05-10T08:11:00;13.70;99.90
22738;DHT22;11536;50.860;4.286;2023-05-10T08:13:25;13.70;99.90
22738;DHT22;11536;50.860;4.286;2023-05-10T08:15:51;13.70;99.90
22738;DHT22;11536;50.860;4.286;2023-05-10T08:18:19;13.70;99.90
22738;DHT22;11536;50.860;4.286;2023-05-10T08:20:44;13.70;99.90
22738;DHT22;11536;50.860;4.286;2023-05-10T08:23:12;13.70;99.90
22738;DHT22;11536;50.860;4.286;2023-05-10T08:25:38;13.80;99.90
22738;DHT22;11536;50.860;4.286;2023-05-10T08:28:04;13.80;99.90
22738;DHT22;11536;50.860;4.286;2023-05-10T08:30:29;13.70;99.90
22738;DHT22;11536;50.860;4.286;2023-05-10T08:32:55;13.70;99.90
22738;DHT22;11536;50.860;4.286;2023-05-10T08:35:21;13.70;99.90
22738;DHT22;11536;50.860;4.286;2023-05-10T08:37:46;13.70;99.90
22738;DHT22;11536;50.860;4.286;2023-05-10T08:40:12;13.70;99.90
22738;DHT22;11536;50.860;4.286;2023-05-10T08:42:40;13.80;99.90
22738;DHT22;11536;50.860;4.286;2023-05-10T08:45:08;13.80;99.90
22738;DHT22;11536;50.860;4.286;2023-05-10T08:47:36;13.80;99.90
22738;DHT22;11536;50.860;4.286;2023-05-10T08:50:03;13.80;99.90
22738;DHT22;11536;50.860;4.286;2023-05-10T08:52:30;13.80;99.90
22738;DHT22;11536;50.860;4.286;2023-05-10T08:54:56;13.80;99.90
22738;DHT22;11536;50.860;4.286;2023-05-10T08:57:22;13.80;99.90
22738;DHT22;11536;50.860;4.286;2023-05-10T08:59:47;13.80;99.90
22738;DHT22;11536;50.860;4.286;2023-05-10T09:02:14;13.80;99.90
22738;DHT22;11536;50.860;4.286;2023-05-10T09:04:39;13.90;99.90
22738;DHT22;11536;50.860;4.286;2023-05-10T09:07:06;13.80;99.90
22738;DHT22;11536;50.860;4.286;2023-05-10T09:09:33;13.80;99.90
22738;DHT22;11536;50.860;4.286;2023-05-10T09:11:59;13.80;99.90
22738;DHT22;11536;50.860;4.286;2023-05-10T09:14:25;13.90;99.90
22738;DHT22;11536;50.860;4.286;2023-05-10T09:16:51;13.90;99.90
22738;DHT22;11536;50.860;4.286;2023-05-10T09:19:17;13.90;99.90
22738;DHT22;11536;50.860;4.286;2023-05-10T09:21:43;13.90;99.90
22738;DHT22;11536;50.860;4.286;2023-05-10T09:24:08;13.90;99.90
22738;DHT22;11536;50.860;4.286;2023-05-10T09:26:35;13.90;99.90
22738;DHT22;11536;50.860;4.286;2023-05-10T09:29:02;13.90;99.90
22738;DHT22;11536;50.860;4.286;2023-05-10T09:31:48;13.90;99.90
22738;DHT22;11536;50.860;4.286;2023-05-10T09:34:22;13.90;99.90
22738;DHT22;11536;50.860;4.286;2023-05-10T09:36:58;13.90;99.90
22738;DHT22;11536;50.860;4.286;2023-05-10T09:39:33;13.90;99.90
22738;DHT22;11536;50.860;4.286;2023-05-10T09:42:09;13.90;99.90
22738;DHT22;11536;50.860;4.286;2023-05-10T09:44:36;13.90;99.90
22738;DHT22;11536;50.860;4.286;2023-05-10T09:47:02;13.90;99.90
22738;DHT22;11536;50.860;4.286;2023-05-10T09:49:29;13.90;99.90
22738;DHT22;11536;50.860;4.286;2023-05-10T09:52:01;14.00;99.90
22738;DHT22;11536;50.860;4.286;2023-05-10T09:54:28;14.00;99.90
22738;DHT22;11536;50.860;4.286;2023-05-10T09:56:53;14.00;99.90
22738;DHT22;11536;50.860;4.286;2023-05-10T09:59:19;14.00;99.90
22738;DHT22;11536;50.860;4.286;2023-05-10T10:01:51;14.00;99.90
22738;DHT22;11536;50.860;4.286;2023-05-10T10:04:17;14.10;99.90
22738;DHT22;11536;50.860;4.286;2023-05-10T10:06:43;14.10;99.90
22738;DHT22;11536;50.860;4.286;2023-05-10T10:09:09;14.00;99.90
22738;DHT22;11536;50.860;4.286;2023-05-10T10:11:38;14.00;99.90
22738;DHT22;11536;50.860;4.286;2023-05-10T10:14:05;14.00;99.90
22738;DHT22;11536;50.860;4.286;2023-05-10T10:16:31;14.00;99.90
22738;DHT22;11536;50.860;4.286;2023-05-10T10:18:57;14.00;99.90
22738;DHT22;11536;50.860;4.286;2023-05-10T10:21:24;14.00;99.90
22738;DHT22;11536;50.860;4.286;2023-05-10T10:23:50;14.10;99.90
22738;DHT22;11536;50.860;4.286;2023-05-10T10:26:17;14.10;99.90
22738;DHT22;11536;50.860;4.286;2023-05-10T10:31:46;14.10;99.90
22738;DHT22;11536;50.860;4.286;2023-05-10T10:34:32;14.10;99.90
22738;DHT22;11536;50.860;4.286;2023-05-10T10:37:04;14.20;99.90
22738;DHT22;11536;50.860;4.286;2023-05-10T10:39:30;14.20;99.90
22738;DHT22;11536;50.860;4.286;2023-05-10T10:41:57;14.30;99.90
22738;DHT22;11536;50.860;4.286;2023-05-10T10:44:28;14.30;99.90
22738;DHT22;11536;50.860;4.286;2023-05-10T10:49:51;14.40;99.90
22738;DHT22;11536;50.860;4.286;2023-05-10T10:52:35;14.40;99.90
22738;DHT22;11536;50.860;4.286;2023-05-10T10:55:13;14.40;99.90
22738;DHT22;11536;50.860;4.286;2023-05-10T11:02:49;14.40;99.90
22738;DHT22;11536;50.860;4.286;2023-05-10T11:07:57;14.50;99.90
22738;DHT22;11536;50.860;4.286;2023-05-10T11:10:24;14.40;99.90
22738;DHT22;11536;50.860;4.286;2023-05-10T11:13:03;14.50;99.90
22738;DHT22;11536;50.860;4.286;2023-05-10T11:15:34;14.50;99.90
22738;DHT22;11536;50.860;4.286;2023-05-10T11:18:01;14.50;99.90
22738;DHT22;11536;50.860;4.286;2023-05-10T11:20:41;14.60;99.90
22738;DHT22;11536;50.860;4.286;2023-05-10T11:23:14;14.60;99.90
22738;DHT22;11536;50.860;4.286;2023-05-10T11:25:43;14.60;99.90
22738;DHT22;11536;50.860;4.286;2023-05-10T11:28:10;14.70;99.90
22738;DHT22;11536;50.860;4.286;2023-05-10T11:30:38;14.70;99.90
22738;DHT22;11536;50.860;4.286;2023-05-10T11:33:05;14.70;99.90
22738;DHT22;11536;50.860;4.286;2023-05-10T11:35:37;14.70;99.90
22738;DHT22;11536;50.860;4.286;2023-05-10T11:38:06;14.80;99.90
22738;DHT22;11536;50.860;4.286;2023-05-10T11:40:36;14.80;99.90
22738;DHT22;11536;50.860;4.286;2023-05-10T11:43:03;14.80;99.90
22738;DHT22;11536;50.860;4.286;2023-05-10T11:45:33;14.90;99.90
22738;DHT22;11536;50.860;4.286;2023-05-10T11:47:59;14.90;99.90
22738;DHT22;11536;50.860;4.286;2023-05-10T11:50:25;14.90;99.90
22738;DHT22;11536;50.860;4.286;2023-05-10T11:52:57;14.90;99.90
22738;DHT22;11536;50.860;4.286;2023-05-10T11:55:24;14.90;99.90
22738;DHT22;11536;50.860;4.286;2023-05-10T11:57:54;14.80;99.90
22738;DHT22;11536;50.860;4.286;2023-05-10T12:00:20;14.90;99.90
22738;DHT22;11536;50.860;4.286;2023-05-10T12:02:46;14.90;99.90
22738;DHT22;11536;50.860;4.286;2023-05-10T12:05:13;15.00;99.90
22738;DHT22;11536;50.860;4.286;2023-05-10T12:07:38;15.00;99.90
22738;DHT22;11536;50.860;4.286;2023-05-10T12:10:12;15.00;99.90
22738;DHT22;11536;50.860;4.286;2023-05-10T12:12:45;15.00;99.90
22738;DHT22;11536;50.860;4.286;2023-05-10T12:15:21;15.00;99.90
22738;DHT22;11536;50.860;4.286;2023-05-10T12:17:48;15.00;99.90
22738;DHT22;11536;50.860;4.286;2023-05-10T12:20:14;15.00;99.90
22738;DHT22;11536;50.860;4.286;2023-05-10T12:22:43;15.10;99.90
22738;DHT22;11536;50.860;4.286;2023-05-10T12:25:09;15.10;99.90
22738;DHT22;11536;50.860;4.286;2023-05-10T12:27:35;15.10;99.90
22738;DHT22;11536;50.860;4.286;2023-05-10T12:30:02;15.10;99.90
22738;DHT22;11536;50.860;4.286;2023-05-10T12:32:38;15.10;99.90
22738;DHT22;11536;50.860;4.286;2023-05-10T12:35:04;15.10;99.90
22738;DHT22;11536;50.860;4.286;2023-05-10T12:37:30;15.20;99.90
22738;DHT22;11536;50.860;4.286;2023-05-10T12:39:56;15.20;99.90
22738;DHT22;11536;50.860;4.286;2023-05-10T12:42:21;15.20;99.90
22738;DHT22;11536;50.860;4.286;2023-05-10T12:44:48;15.20;99.90
22738;DHT22;11536;50.860;4.286;2023-05-10T12:47:14;15.30;99.90
22738;DHT22;11536;50.860;4.286;2023-05-10T12:49:39;15.30;99.90
22738;DHT22;11536;50.860;4.286;2023-05-10T12:52:05;15.30;99.90
22738;DHT22;11536;50.860;4.286;2023-05-10T12:54:31;15.30;99.90
22738;DHT22;11536;50.860;4.286;2023-05-10T12:56:56;15.30;99.90
22738;DHT22;11536;50.860;4.286;2023-05-10T12:59:22;15.40;99.90
22738;DHT22;11536;50.860;4.286;2023-05-10T13:01:48;15.40;99.90
22738;DHT22;11536;50.860;4.286;2023-05-10T13:04:20;15.50;99.90
22738;DHT22;11536;50.860;4.286;2023-05-10T13:06:45;15.50;99.90
22738;DHT22;11536;50.860;4.286;2023-05-10T13:09:11;15.50;99.90
22738;DHT22;11536;50.860;4.286;2023-05-10T13:11:37;15.50;99.90
22738;DHT22;11536;50.860;4.286;2023-05-10T13:14:03;15.60;99.90
22738;DHT22;11536;50.860;4.286;2023-05-10T13:16:29;15.60;99.90
22738;DHT22;11536;50.860;4.286;2023-05-10T13:18:55;15.70;99.90
22738;DHT22;11536;50.860;4.286;2023-05-10T13:21:20;15.70;99.90
22738;DHT22;11536;50.860;4.286;2023-05-10T13:23:46;15.70;99.90
22738;DHT22;11536;50.860;4.286;2023-05-10T13:26:12;15.80;99.90
22738;DHT22;11536;50.860;4.286;2023-05-10T13:28:38;15.80;99.90
22738;DHT22;11536;50.860;4.286;2023-05-10T13:31:04;15.80;99.90
22738;DHT22;11536;50.860;4.286;2023-05-10T13:33:30;15.80;99.90
22738;DHT22;11536;50.860;4.286;2023-05-10T13:35:56;15.90;99.90
22738;DHT22;11536;50.860;4.286;2023-05-10T13:38:22;15.90;99.90
22738;DHT22;11536;50.860;4.286;2023-05-10T13:40:47;16.00;99.90
22738;DHT22;11536;50.860;4.286;2023-05-10T13:43:13;16.00;99.90
22738;DHT22;11536;50.860;4.286;2023-05-10T13:45:42;16.00;99.90
22738;DHT22;11536;50.860;4.286;2023-05-10T13:48:07;16.10;99.90
22738;DHT22;11536;50.860;4.286;2023-05-10T13:50:33;16.10;99.90
22738;DHT22;11536;50.860;4.286;2023-05-10T13:52:58;16.10;99.90
22738;DHT22;11536;50.860;4.286;2023-05-10T13:55:24;16.10;99.90
22738;DHT22;11536;50.860;4.286;2023-05-10T13:57:50;16.10;99.90
22738;DHT22;11536;50.860;4.286;2023-05-10T14:00:16;16.20;99.90
22738;DHT22;11536;50.860;4.286;2023-05-10T14:02:41;16.20;99.90
22738;DHT22;11536;50.860;4.286;2023-05-10T14:05:07;16.30;99.90
22738;DHT22;11536;50.860;4.286;2023-05-10T14:07:33;16.30;99.90
22738;DHT22;11536;50.860;4.286;2023-05-10T14:09:58;16.40;99.90
22738;DHT22;11536;50.860;4.286;2023-05-10T14:12:24;16.40;99.90
22738;DHT22;11536;50.860;4.286;2023-05-10T14:14:50;16.50;99.90
22738;DHT22;11536;50.860;4.286;2023-05-10T14:17:16;16.50;99.90
22738;DHT22;11536;50.860;4.286;2023-05-10T14:19:41;16.50;99.90
22738;DHT22;11536;50.860;4.286;2023-05-10T14:22:07;16.50;99.90
22738;DHT22;11536;50.860;4.286;2023-05-10T14:24:32;16.50;99.90
22738;DHT22;11536;50.860;4.286;2023-05-10T14:26:58;16.50;99.90
22738;DHT22;11536;50.860;4.286;2023-05-10T14:29:24;16.60;99.90
22738;DHT22;11536;50.860;4.286;2023-05-10T14:31:50;16.60;99.90
22738;DHT22;11536;50.860;4.286;2023-05-10T14:34:15;16.50;99.90
22738;DHT22;11536;50.860;4.286;2023-05-10T14:36:41;16.50;99.90
22738;DHT22;11536;50.860;4.286;2023-05-10T14:39:07;16.50;99.90
22738;DHT22;11536;50.860;4.286;2023-05-10T14:41:33;16.50;99.90
22738;DHT22;11536;50.860;4.286;2023-05-10T14:43:58;16.50;99.90
22738;DHT22;11536;50.860;4.286;2023-05-10T14:46:27;16.60;99.90
22738;DHT22;11536;50.860;4.286;2023-05-10T14:48:53;16.50;99.90
22738;DHT22;11536;50.860;4.286;2023-05-10T14:51:18;16.50;99.90
22738;DHT22;11536;50.860;4.286;2023-05-10T14:53:47;16.50;99.90
22738;DHT22;11536;50.860;4.286;2023-05-10T14:56:14;16.40;99.90
22738;DHT22;11536;50.860;4.286;2023-05-10T14:58:40;16.30;99.90
22738;DHT22;11536;50.860;4.286;2023-05-10T15:01:05;16.20;99.90
22738;DHT22;11536;50.860;4.286;2023-05-10T15:03:31;16.20;99.90
22738;DHT22;11536;50.860;4.286;2023-05-10T15:05:57;16.10;99.90
22738;DHT22;11536;50.860;4.286;2023-05-10T15:08:23;16.00;99.90
22738;DHT22;11536;50.860;4.286;2023-05-10T15:10:50;15.90;99.90
22738;DHT22;11536;50.860;4.286;2023-05-10T15:13:16;15.80;99.90
22738;DHT22;11536;50.860;4.286;2023-05-10T15:15:41;15.70;99.90
22738;DHT22;11536;50.860;4.286;2023-05-10T15:18:11;15.70;99.90
22738;DHT22;11536;50.860;4.286;2023-05-10T15:20:37;15.60;99.90
22738;DHT22;11536;50.860;4.286;2023-05-10T15:23:02;15.50;99.90
22738;DHT22;11536;50.860;4.286;2023-05-10T15:25:28;15.50;99.90
22738;DHT22;11536;50.860;4.286;2023-05-10T15:27:54;15.40;99.90
22738;DHT22;11536;50.860;4.286;2023-05-10T15:30:20;15.30;99.90
22738;DHT22;11536;50.860;4.286;2023-05-10T15:32:46;15.30;99.90
22738;DHT22;11536;50.860;4.286;2023-05-10T15:35:12;15.20;99.90
22738;DHT22;11536;50.860;4.286;2023-05-10T15:37:42;15.20;99.90
22738;DHT22;11536;50.860;4.286;2023-05-10T15:40:08;15.20;99.90
22738;DHT22;11536;50.860;4.286;2023-05-10T15:42:34;15.20;99.90
22738;DHT22;11536;50.860;4.286;2023-05-10T15:44:59;15.20;99.90
22738;DHT22;11536;50.860;4.286;2023-05-10T15:47:26;15.20;99.90
22738;DHT22;11536;50.860;4.286;2023-05-10T15:49:52;15.20;99.90
22738;DHT22;11536;50.860;4.286;2023-05-10T15:52:18;15.20;99.90
22738;DHT22;11536;50.860;4.286;2023-05-10T15:54:45;15.30;99.90
22738;DHT22;11536;50.860;4.286;2023-05-10T15:57:11;15.30;99.90
22738;DHT22;11536;50.860;4.286;2023-05-10T15:59:37;15.30;99.90